Ride Results

Far-A-Way Monday (17-04-2006)
Ride distance: 80.0 km

Outcomes - Far-A-Way Monday (17-04-2006)
Division No. of Entries Retired / DNE Completed Withdrawn Ineligible V/O Percentage Completed
HW 7 - 4 1 1 1 57.14%
MW 19 - 11 1 - 7 57.89%
LW 14 - 14 - - - 100.00%
JN 6 - 4 1 - 1 66.67%
Totals 46 - 33 3 1 9 71.74%
Results - Far-A-Way Monday (17-04-2006)
No. Rider Horse Place Time Leg Speeds Total
Km/Hr
H/R bpm
Heavyweight
135 David Horton Eskdale Espirique 1 6:04:00 14.3, 13.2 13.85 36, 49, 59 (Avg:54)
120 Ken Burwell Kalkadoon Nijinsky 2 7:10:00 11.7, 11.6 11.72 36, 43, 51 (Avg:47)
102 Roger Warner Cassius 3 8:11:00 10.4, 10.0 10.26 36, 48, 54 (Avg:51)
112 David Pembroke Rahim Whispah 4 8:15:00 10.2, 10.0 10.18 33, 51, 54 (Avg:52)
145 John Storrs Ralvon Shamark Out of Time L2 0:00:00 7.8, 9.7 - 40, 42, 64 (Avg:53)
103 Shimpei Miyamoto Mingara Samson Lame L1 0:00:00 12.7 - 42, 45 (Avg:45)
124 Craig Renner Edenfels Zephyr Withdrawn L1 0:00:00 - - 35, 53 (Avg:53)
Middleweight
122 Scott Hill Kalkadoon Kynuna 1 6:08:00 13.7, 13.5 13.70 41, 41, 50 (Avg:45)
121 Karen Johanson Kalkadoon Kismet 1 6:08:00 13.7, 13.5 13.70 37, 42, 48 (Avg:45)
104 Daniele O'Loughlin Pravado 3 6:16:00 12.7, 14.3 13.40 40, 47, 47 (Avg:47)
127 Stephen Gray Talika Fadar 4 7:40:00 11.1, 10.7 10.96 35, 43, 46 (Avg:44)
125 Viv Butler Sadaqa 5 8:11:00 10.4, 10.0 10.26 36, 45, 49 (Avg:47)
140 Emma Holland Burralga Whisky 6 8:14:00 9.7, 10.8 10.20 40, 39, 44 (Avg:41)
115 Robyn Pembroke Mt Eerwah Silverado 7 8:15:00 10.2, 10.0 10.18 33, 39, 46 (Avg:42)
136 Janine Parr Damanda Kaaluha 8 8:16:00 10.8, 9.4 10.16 33, 54, 53 (Avg:53)
101 Deborah Krogh Mithras Lancelot 9 8:42:00 9.5, 9.7 9.66 44, 42, 42 (Avg:42)
131 Dale Hargreaves Mathew 10 8:52:00 9.3, 9.6 9.47 34, 42, 42 (Avg:42)
132 Georgia Zischke Larabi Chase 11 8:54:00 8.8, 10.2 9.44 36, 41, 44 (Avg:42)
111 Lauren Cox Shah-Vale Shamal Lame L2 0:00:00 12.7, 12.6 - 40, 45, 52 (Avg:48)
134 Deborah Hargie Gailfree Tia Lame L2 0:00:00 9.3, 9.8 - 44, 45, 44 (Avg:44)
130 Renae Kuhn Mt Eerwah Silver Mariner Lame L2 0:00:00 9.7, 10.7 - 36, 45, 59 (Avg:52)
141 Olga Bartlett Cingala Royalle Lame L1 0:00:00 9.3 - 44, 47 (Avg:47)
118 Donna Brooker Hirstglen Elite Lame L1 0:00:00 12.8 - 33, 48 (Avg:48)
126 Clinton Cole Count Lea Lame L1 0:00:00 16.4 - 33, 46 (Avg:46)
146 Maree Storrs Agape SamuElla Australis Withdrawn L1 0:00:00 - - 37, 41 (Avg:41)
128 Carolyn Strahan Kasbah Kid Heart Rate L1 0:00:00 11.1 - 34, 60 (Avg:60)
Lightweight
119 Lauren Edwards Lusitania 1 6:04:00 14.3, 13.2 13.85 40, 41, 43 (Avg:42)
109 Ashlee Shafer Mylex Sultan 2 6:05:00 13.1, 14.7 13.81 36, 42, 39 (Avg:40)
108 Kaylea Maher Sovereeign 3 6:37:00 12.7, 12.6 12.70 46, 42, 45 (Avg:43)
142 Sarah Love Koorong Elijah 4 7:06:00 12.2, 11.3 11.83 40, 42, 54 (Avg:48)
107 Jessica Kirsch Cameo Coquette 5 7:08:00 12.4, 11.0 11.78 36, 41, 47 (Avg:44)
117 Donna Roberts Hirstglen Chynna 6 7:40:00 11.3, 10.5 10.96 30, 43, 44 (Avg:43)
138 Michael Gabriel Tonique 7 7:49:00 10.3, 11.2 10.75 48, 37, 59 (Avg:48)
144 Cassie Saunders Anatase Roseanna 8 7:51:00 10.9, 10.4 10.70 36, 40, 50 (Avg:45)
105 Della Weier Kahshah 8 7:51:00 11.3, 10.0 10.70 45, 38, 39 (Avg:38)
143 Elise Gough Sundust Sierra 10 8:11:00 10.9, 9.5 10.26 32, 45, 50 (Avg:47)
123 Bobbi Lochtenberg Sooty Bye Royal 10 8:11:00 10.4, 10.0 10.26 36, 43, 48 (Avg:45)
129 Sachiko Murai Shardell Shahbarnah Golden 12 8:14:00 9.7, 10.8 10.20 41, 51, 59 (Avg:55)
139 Tomarra Serjeant Winwood Battai 12 8:14:00 9.7, 10.8 10.20 30, 35, 37 (Avg:36)
116 Chelsea Moore Mt Eerwah Silver Arafina 14 8:15:00 10.2, 10.0 10.18 36, 47, 50 (Avg:48)
Junior
137 Georgia Spencer Camelot Retreat Azada 1 7:49:00 10.3, 11.2 10.75 39, 37, 48 (Avg:42)
106 Terrence Weier Jayhal Ghost 2 7:51:00 11.3, 10.0 10.70 36, 40, 42 (Avg:41)
113 Zoe Locke Kahjeed Ibn Kahlua 3 8:14:00 9.6, 10.9 10.20 39, 47, 42 (Avg:44)
133 Elke Zischke Star of Bell 4 8:42:00 9.5, 9.7 9.66 33, 49, 50 (Avg:49)
114 Brooke Warner Willowcreek Kaleem Lame L1 0:00:00 9.6 - 37, 43 (Avg:43)
110 Saasha Grogan Double Royal Withdrawn P/R 0:00:00 - - 30